Time;durP1;ratioP1;P1;durP2;ratioP2;P2;SDS_P1;SDS_P2;PMS_P1;PMS_P2;Temp;Humidity;BMP_temperature;BMP_pressure;BME280_temperature;BME280_humidity;BME280_pressure;Samples;Min_cycle;Max_cycle;Signal;HPM_P1;HPM_P2
2023/07/27 00:01:44;;;;;;;8.43;5.40;;;;;;;16.20;92.53;100918.81;5009190;28;20025;-73
2023/07/27 00:04:09;;;;;;;8.93;5.50;;;;;;;16.18;92.97;100909.31;5027081;28;20076;-73
2023/07/27 00:06:35;;;;;;;6.63;5.32;;;;;;;16.10;92.68;100899.44;5027722;28;20034;-72
2023/07/27 00:09:00;;;;;;;8.05;5.13;;;;;;;16.04;93.12;100900.03;5028642;28;20076;-73
2023/07/27 00:11:26;;;;;;;9.75;5.65;;;;;;;15.97;92.99;100905.06;5011456;28;20021;-73
2023/07/27 00:13:54;;;;;;;9.05;6.25;;;;;;;15.95;94.69;100901.72;5029215;28;20470;-73
2023/07/27 00:16:22;;;;;;;9.75;5.72;;;;;;;15.94;95.38;100899.22;5027814;28;20024;-72
2023/07/27 00:18:48;;;;;;;8.32;5.97;;;;;;;15.90;96.70;100897.84;5011047;28;20403;-73
2023/07/27 00:21:21;;;;;;;6.32;5.50;;;;;;;15.87;96.91;100898.16;5008986;28;20112;-73
2023/07/27 00:23:46;;;;;;;6.43;5.13;;;;;;;15.85;96.56;100890.34;5009204;28;20029;-73
2023/07/27 00:26:23;;;;;;;7.53;5.70;;;;;;;15.85;98.02;100892.16;5019615;28;20028;-74
2023/07/27 00:28:49;;;;;;;8.27;5.63;;;;;;;15.80;97.64;100889.94;5023814;28;20033;-73
2023/07/27 00:31:14;;;;;;;8.75;5.93;;;;;;;15.74;99.21;100893.19;5028559;28;20024;-73
2023/07/27 00:33:40;;;;;;;7.03;5.30;;;;;;;15.70;99.77;100885.66;5027533;28;20408;-73
2023/07/27 00:36:06;;;;;;;9.25;5.57;;;;;;;15.74;100.00;100887.88;5011015;28;20013;-73
2023/07/27 00:38:31;;;;;;;7.22;5.45;;;;;;;15.74;100.00;100887.88;5012928;28;20378;-73
2023/07/27 00:40:59;;;;;;;7.18;5.63;;;;;;;15.71;100.00;100882.88;5029948;28;20583;-74
2023/07/27 00:43:25;;;;;;;8.27;5.93;;;;;;;15.65;100.00;100878.13;5029114;28;20025;-73
2023/07/27 00:45:54;;;;;;;8.05;5.20;;;;;;;15.61;100.00;100871.47;5028069;28;20131;-74
2023/07/27 00:48:23;;;;;;;6.63;5.65;;;;;;;15.57;100.00;100872.66;5010884;28;20025;-73
2023/07/27 00:50:50;;;;;;;9.65;6.13;;;;;;;15.51;100.00;100865.28;5029432;28;20385;-73
2023/07/27 00:53:17;;;;;;;7.88;6.10;;;;;;;15.56;100.00;100863.88;5028812;28;20100;-73
2023/07/27 00:55:46;;;;;;;7.78;5.72;;;;;;;15.55;100.00;100850.75;5010323;28;20109;-74
2023/07/27 00:58:12;;;;;;;6.30;5.47;;;;;;;15.60;100.00;100853.84;5025422;28;20501;-74
2023/07/27 01:00:45;;;;;;;7.55;6.25;;;;;;;15.58;100.00;100845.19;5017283;28;20450;-74
2023/07/27 01:03:10;;;;;;;;;;;;;;;15.73;98.77;100840.28;5019822;28;20052;-74
2023/07/27 01:05:37;;;;;;;7.57;6.30;;;;;;;15.49;100.00;100828.31;5028209;28;19917;-74
2023/07/27 01:08:03;;;;;;;10.73;6.75;;;;;;;15.47;100.00;100827.63;5025406;28;21039;-73
2023/07/27 01:10:52;;;;;;;7.90;6.45;;;;;;;15.46;100.00;100831.25;5027164;28;20486;-75
2023/07/27 01:13:23;;;;;;;10.73;6.72;;;;;;;15.36;100.00;100826.00;5028500;28;20193;-75
2023/07/27 01:15:58;;;;;;;7.85;6.43;;;;;;;15.40;100.00;100826.53;5027462;28;20025;-75
2023/07/27 01:18:50;;;;;;;9.75;6.68;;;;;;;15.41;100.00;100822.91;5028320;28;20041;-75
2023/07/27 01:21:30;;;;;;;7.65;6.50;;;;;;;15.34;100.00;100816.53;5030595;28;20473;-76
2023/07/27 01:24:13;;;;;;;9.70;7.05;;;;;;;15.24;100.00;100816.56;5029970;28;20036;-75
2023/07/27 01:26:48;;;;;;;8.93;6.85;;;;;;;15.24;100.00;100816.56;5015942;28;20030;-75
2023/07/27 01:29:46;;;;;;;8.80;7.15;;;;;;;15.18;100.00;100811.81;5027126;28;20075;-75
2023/07/27 01:32:17;;;;;;;10.75;7.80;;;;;;;15.05;100.00;100809.47;5031544;28;20025;-75
2023/07/27 01:34:45;;;;;;;8.73;7.18;;;;;;;15.07;100.00;100803.19;5030968;28;20056;-74
2023/07/27 01:37:15;;;;;;;10.30;7.47;;;;;;;15.07;100.00;100801.38;5021511;28;20386;-74
2023/07/27 01:39:47;;;;;;;9.07;7.47;;;;;;;15.09;100.00;100794.13;5006698;28;20132;-75
2023/07/27 01:42:16;;;;;;;9.38;7.38;;;;;;;15.12;100.00;100785.06;5018221;28;20121;-75
2023/07/27 01:44:51;;;;;;;10.85;8.18;;;;;;;15.03;100.00;100784.94;5031809;28;20026;-74
2023/07/27 01:47:18;;;;;;;9.40;7.70;;;;;;;15.00;100.00;100782.59;5031742;28;20052;-75
2023/07/27 01:49:45;;;;;;;10.32;8.18;;;;;;;14.97;100.00;100782.88;4998237;28;20025;-74
2023/07/27 01:52:13;;;;;;;13.13;8.43;;;;;;;14.96;100.00;100786.50;5014532;28;20390;-75
2023/07/27 01:54:39;;;;;;;9.95;7.97;;;;;;;15.05;100.00;100780.34;5029840;28;20025;-75
2023/07/27 01:57:06;;;;;;;8.88;7.60;;;;;;;15.04;100.00;100776.00;5032324;28;20029;-75
2023/07/27 01:59:33;;;;;;;9.05;8.00;;;;;;;15.05;100.00;100769.72;5031430;28;20474;-74
2023/07/27 02:01:59;;;;;;;10.23;8.27;;;;;;;14.99;100.00;100765.00;5031019;28;20028;-74
2023/07/27 02:04:25;;;;;;;10.38;8.57;;;;;;;14.99;100.00;100753.56;5031064;28;20041;-73
2023/07/27 02:06:51;;;;;;;11.10;8.30;;;;;;;15.03;100.00;100745.19;5013904;28;20120;-74
2023/07/27 02:09:16;;;;;;;10.50;8.30;;;;;;;14.99;100.00;100749.13;5031807;28;20021;-74
2023/07/27 02:11:48;;;;;;;10.10;8.10;;;;;;;14.99;100.00;100740.34;5029635;28;20029;-74
2023/07/27 02:14:38;;;;;;;10.02;8.18;;;;;;;15.03;100.00;100731.94;5027174;28;20035;-74
2023/07/27 02:17:12;;;;;;;9.15;8.07;;;;;;;14.94;100.00;100724.88;5011446;28;20121;-74
2023/07/27 02:19:44;;;;;;;11.27;8.73;;;;;;;14.95;100.00;100720.41;5030704;28;20025;-74
2023/07/27 02:22:10;;;;;;;9.45;8.50;;;;;;;14.90;100.00;100710.25;5013133;28;20033;-73
2023/07/27 02:24:37;;;;;;;10.15;8.20;;;;;;;14.92;100.00;100707.44;5012441;28;20032;-73
2023/07/27 02:27:03;;;;;;;10.02;8.30;;;;;;;14.89;100.00;100705.94;5030465;28;20029;-74
2023/07/27 02:29:31;;;;;;;10.63;8.20;;;;;;;14.88;100.00;100700.78;5015039;28;20036;-74
2023/07/27 02:31:56;;;;;;;10.68;8.13;;;;;;;14.88;100.00;100698.13;5018425;28;20021;-74
2023/07/27 02:34:22;;;;;;;11.55;9.10;;;;;;;14.88;100.00;100695.47;5030834;28;20026;-74
2023/07/27 02:36:47;;;;;;;10.93;8.88;;;;;;;14.85;100.00;100683.34;5025052;28;20835;-74
2023/07/27 02:39:12;;;;;;;14.13;9.07;;;;;;;14.85;100.00;100678.06;5006360;28;20043;-74
2023/07/27 02:41:38;;;;;;;12.13;8.52;;;;;;;14.86;100.00;100676.25;5013301;28;20389;-75
2023/07/27 02:44:03;;;;;;;10.15;8.43;;;;;;;14.88;100.00;100669.81;5030709;28;20017;-75
2023/07/27 02:46:28;;;;;;;11.35;8.60;;;;;;;14.85;100.00;100672.75;5019282;28;20561;-75
2023/07/27 02:48:55;;;;;;;10.23;8.30;;;;;;;14.84;100.00;100663.16;5010307;28;20453;-75
2023/07/27 02:51:21;;;;;;;12.77;8.75;;;;;;;14.79;100.00;100668.03;5030589;28;20017;-74
2023/07/27 02:53:46;;;;;;;12.23;8.73;;;;;;;14.78;100.00;100663.69;5031466;28;20433;-74
2023/07/27 02:56:12;;;;;;;12.40;8.27;;;;;;;14.78;100.00;100661.06;5029362;28;20105;-73
2023/07/27 02:58:37;;;;;;;11.07;8.52;;;;;;;14.81;100.00;100659.91;5030390;28;20025;-73
2023/07/27 03:01:03;;;;;;;10.52;8.38;;;;;;;14.82;100.00;100657.16;5030627;28;20029;-73
2023/07/27 03:03:28;;;;;;;10.25;8.38;;;;;;;14.82;100.00;100654.50;5029536;28;20041;-72
2023/07/27 03:05:58;;;;;;;11.02;8.80;;;;;;;14.80;100.00;100653.78;5030825;28;20026;-72
2023/07/27 03:08:23;;;;;;;10.35;8.90;;;;;;;14.76;100.00;100641.81;5028925;28;20083;-72
2023/07/27 03:10:49;;;;;;;16.17;8.95;;;;;;;14.73;100.00;100639.47;5029735;28;20029;-72
2023/07/27 03:13:14;;;;;;;10.73;8.65;;;;;;;14.71;100.00;100634.31;5029863;28;20064;-72
2023/07/27 03:15:40;;;;;;;12.95;9.48;;;;;;;14.69;100.00;100636.28;5031366;28;20022;-72
2023/07/27 03:18:06;;;;;;;11.60;8.68;;;;;;;14.69;100.00;100624.84;5021967;28;20100;-72
2023/07/27 03:20:40;;;;;;;11.82;8.55;;;;;;;14.67;100.00;100622.34;5029281;28;20033;-72
2023/07/27 03:23:10;;;;;;;12.05;8.52;;;;;;;14.65;100.00;100610.22;5029609;28;20079;-73
2023/07/27 03:25:36;;;;;;;11.50;8.32;;;;;;;14.65;100.00;100604.94;5030189;28;20109;-72
2023/07/27 03:28:03;;;;;;;11.25;8.45;;;;;;;14.62;100.00;100602.59;5025083;28;20364;-73
2023/07/27 03:30:29;;;;;;;10.68;8.48;;;;;;;14.60;100.00;100591.31;5012555;28;20108;-73
2023/07/27 03:32:55;;;;;;;10.80;8.18;;;;;;;14.62;100.00;100586.69;5028174;28;20119;-73
2023/07/27 03:35:20;;;;;;;11.43;8.45;;;;;;;14.63;100.00;100577.78;5020026;28;20025;-72
2023/07/27 03:37:46;;;;;;;11.15;8.13;;;;;;;14.63;100.00;100567.19;5028595;28;20037;-73
2023/07/27 03:40:11;;;;;;;10.82;7.82;;;;;;;14.62;100.00;100557.56;5029470;28;20022;-73
2023/07/27 03:42:37;;;;;;;9.82;8.25;;;;;;;14.59;100.00;100556.06;5028669;28;20021;-73
2023/07/27 03:45:03;;;;;;;11.23;8.52;;;;;;;14.60;100.00;100546.28;5029571;28;20036;-72
2023/07/27 03:47:28;;;;;;;11.07;8.32;;;;;;;14.59;100.00;100545.47;5028594;28;20431;-73
2023/07/27 03:49:53;;;;;;;10.45;8.35;;;;;;;14.61;100.00;100542.66;5029336;28;20029;-72
2023/07/27 03:52:19;;;;;;;11.05;7.97;;;;;;;14.56;100.00;100529.03;5021645;28;20056;-73
2023/07/27 03:54:44;;;;;;;12.95;7.68;;;;;;;14.57;100.00;100528.88;5029837;28;20024;-73
2023/07/27 03:57:09;;;;;;;10.13;8.05;;;;;;;14.56;100.00;100526.38;5029309;28;20052;-73
2023/07/27 03:59:35;;;;;;;10.07;7.45;;;;;;;14.54;100.00;100528.34;5029713;28;20021;-72
2023/07/27 04:02:00;;;;;;;10.27;7.07;;;;;;;14.55;100.00;100522.91;5026898;28;20052;-73
2023/07/27 04:04:25;;;;;;;7.82;6.63;;;;;;;14.54;100.00;100529.19;5027792;28;20048;-72
2023/07/27 04:06:51;;;;;;;10.45;6.78;;;;;;;14.53;100.00;100529.31;5028461;28;20037;-72
2023/07/27 04:09:16;;;;;;;8.93;6.65;;;;;;;14.51;100.00;100528.66;5029649;28;20083;-73
2023/07/27 04:11:42;;;;;;;7.63;6.63;;;;;;;14.53;100.00;100527.50;5029550;28;20067;-73
2023/07/27 04:14:07;;;;;;;9.02;6.85;;;;;;;14.52;100.00;100527.66;5030202;28;20080;-73
2023/07/27 04:16:33;;;;;;;6.30;5.70;;;;;;;14.55;100.00;100530.00;5028383;28;20082;-73
2023/07/27 04:18:58;;;;;;;9.98;6.07;;;;;;;14.54;100.00;100525.69;5029998;28;20108;-73
2023/07/27 04:21:23;;;;;;;7.57;5.50;;;;;;;14.55;100.00;100514.13;5009873;28;20187;-74
2023/07/27 04:23:53;;;;;;;6.82;5.10;;;;;;;14.52;100.00;100509.13;5027555;28;20063;-74
2023/07/27 04:26:19;;;;;;;6.05;5.22;;;;;;;14.51;100.00;100505.66;5029153;28;20033;-73
2023/07/27 04:28:44;;;;;;;6.85;4.93;;;;;;;14.51;100.00;100502.16;5026798;28;20124;-73
2023/07/27 04:31:09;;;;;;;8.80;5.15;;;;;;;14.49;100.00;100501.47;5027489;28;20074;-73
2023/07/27 04:33:35;;;;;;;8.75;4.72;;;;;;;14.46;100.00;100497.31;5027898;28;20031;-72
2023/07/27 04:36:01;;;;;;;5.65;4.85;;;;;;;14.48;100.00;100487.41;5028213;28;20018;-72
2023/07/27 04:38:26;;;;;;;6.65;4.93;;;;;;;14.46;100.00;100486.72;5027566;28;20029;-73
2023/07/27 04:40:51;;;;;;;5.20;4.53;;;;;;;14.45;100.00;100484.22;5006231;28;20550;-73
2023/07/27 04:43:18;;;;;;;8.82;4.93;;;;;;;14.46;100.00;100480.59;5027669;28;20022;-72
2023/07/27 04:45:43;;;;;;;6.43;4.80;;;;;;;14.46;100.00;100481.44;5027156;28;20053;-72
2023/07/27 04:48:09;;;;;;;7.15;5.07;;;;;;;14.46;100.00;100477.97;5026443;28;20112;-72
2023/07/27 04:50:35;;;;;;;7.63;5.03;;;;;;;14.47;100.00;100477.81;5029192;28;20029;-73
2023/07/27 04:53:01;;;;;;;5.75;4.88;;;;;;;14.49;100.00;100470.56;5029364;28;20037;-73
2023/07/27 04:55:26;;;;;;;6.30;5.05;;;;;;;14.50;100.00;100468.72;5029706;28;20017;-73
2023/07/27 04:57:51;;;;;;;5.97;5.28;;;;;;;14.50;100.00;100466.09;5031994;28;20100;-73
2023/07/27 05:00:17;;;;;;;7.40;5.60;;;;;;;14.49;100.00;100465.25;5012336;28;20497;-73
2023/07/27 05:02:43;;;;;;;6.78;5.13;;;;;;;14.50;100.00;100468.72;5031851;28;20136;-73
2023/07/27 05:05:08;;;;;;;6.43;5.07;;;;;;;14.52;100.00;100464.13;5032314;28;20104;-73
2023/07/27 05:07:37;;;;;;;6.97;5.57;;;;;;;14.51;100.00;100459.81;5015723;28;20029;-73
2023/07/27 05:10:02;;;;;;;6.25;5.50;;;;;;;14.50;100.00;100452.84;5033494;28;20025;-73
2023/07/27 05:12:28;;;;;;;7.15;5.07;;;;;;;14.52;100.00;100453.53;5019658;28;20540;-73
2023/07/27 05:14:53;;;;;;;6.82;5.03;;;;;;;14.50;100.00;100445.75;4997788;28;20025;-74
2023/07/27 05:17:19;;;;;;;7.28;5.28;;;;;;;14.55;100.00;100443.47;5032681;28;20052;-73
2023/07/27 05:19:44;;;;;;;9.20;5.55;;;;;;;14.58;100.00;100440.53;5032407;28;20021;-73
2023/07/27 05:22:09;;;;;;;6.47;5.88;;;;;;;14.61;100.00;100428.81;5033185;28;20017;-73
2023/07/27 05:24:35;;;;;;;6.30;4.88;;;;;;;14.64;100.00;100425.84;5033146;28;20410;-74
2023/07/27 05:27:00;;;;;;;5.78;5.28;;;;;;;14.65;100.00;100422.22;5029637;28;20103;-74
2023/07/27 05:29:26;;;;;;;5.82;5.00;;;;;;;14.68;100.00;100421.91;5031761;28;20477;-74
2023/07/27 05:31:51;;;;;;;6.80;4.95;;;;;;;14.70;100.00;100419.94;5031907;28;20029;-74
2023/07/27 05:34:17;;;;;;;6.20;5.03;;;;;;;14.71;100.00;100426.91;5032194;28;20128;-74
2023/07/27 05:36:42;;;;;;;6.47;5.22;;;;;;;14.73;100.00;100419.66;5014142;28;20496;-74
2023/07/27 05:39:08;;;;;;;6.05;4.70;;;;;;;14.77;100.00;100421.00;5031732;28;20111;-73
2023/07/27 05:41:33;;;;;;;6.07;4.57;;;;;;;14.79;100.00;100413.75;5031615;28;20064;-74
2023/07/27 05:43:59;;;;;;;5.03;4.53;;;;;;;14.81;100.00;100417.09;5030250;28;20386;-73
2023/07/27 05:46:24;;;;;;;5.10;4.70;;;;;;;14.84;100.00;100414.16;5020134;28;20034;-74
2023/07/27 05:48:49;;;;;;;4.72;4.15;;;;;;;14.86;100.00;100409.53;5031172;28;20025;-73
2023/07/27 05:51:15;;;;;;;5.50;4.43;;;;;;;14.90;100.00;100408.25;5023394;28;20025;-74
2023/07/27 05:53:40;;;;;;;5.32;4.13;;;;;;;14.94;100.00;100403.47;5031237;28;20025;-74
2023/07/27 05:56:09;;;;;;;5.82;4.35;;;;;;;14.94;100.00;100396.34;5008372;28;20466;-73
2023/07/27 05:58:34;;;;;;;5.38;4.50;;;;;;;14.97;100.00;100401.34;5030739;28;20108;-73
2023/07/27 06:01:03;;;;;;;4.90;4.38;;;;;;;15.00;100.00;100405.50;5028996;28;20121;-73
2023/07/27 06:03:30;;;;;;;4.20;3.80;;;;;;;15.04;100.00;100397.09;5028032;28;20073;-73
2023/07/27 06:06:01;;;;;;;5.25;4.05;;;;;;;15.07;100.00;100395.94;5030657;28;20123;-74
2023/07/27 06:08:28;;;;;;;4.75;4.30;;;;;;;15.12;100.00;100392.84;5013389;28;20324;-74
2023/07/27 06:11:23;;;;;;;4.97;4.00;;;;;;;15.16;100.00;100394.19;5012594;28;20063;-73
2023/07/27 06:13:55;;;;;;;3.70;3.40;;;;;;;15.19;100.00;100396.53;5011812;28;20042;-74
2023/07/27 06:16:21;;;;;;;4.00;3.70;;;;;;;15.23;100.00;100395.28;5014409;28;20033;-74
2023/07/27 06:18:50;;;;;;;4.30;3.75;;;;;;;15.27;100.00;100391.31;5024769;28;20138;-74
2023/07/27 06:21:15;;;;;;;3.85;3.50;;;;;;;15.31;100.00;100387.38;5013444;28;20044;-75
2023/07/27 06:23:44;;;;;;;3.78;3.38;;;;;;;15.36;100.00;100385.91;5030073;28;20025;-74
2023/07/27 06:26:10;;;;;;;3.42;3.13;;;;;;;15.40;100.00;100381.13;5031629;28;20029;-74
2023/07/27 06:28:35;;;;;;;3.50;3.20;;;;;;;15.48;100.00;100389.13;5022164;28;20057;-74
2023/07/27 06:31:04;;;;;;;3.38;3.08;;;;;;;15.51;100.00;100380.84;4998463;28;20425;-74
2023/07/27 06:33:42;;;;;;;3.15;2.83;;;;;;;15.54;100.00;100379.72;5030569;28;20029;-74
2023/07/27 06:36:52;;;;;;;3.17;2.97;;;;;;;15.58;100.00;100381.91;5026021;28;20025;-74
2023/07/27 06:39:01;;;;;;;3.15;2.90;;;;;;;15.65;100.00;100380.31;5016299;28;20037;-74
2023/07/27 06:41:29;;;;;;;2.83;2.60;;;;;;;15.67;100.00;100374.88;5030904;28;20030;-75
2023/07/27 06:43:54;;;;;;;3.33;3.03;;;;;;;15.70;100.00;100377.19;5030629;28;20166;-74
2023/07/27 06:46:26;;;;;;;3.30;3.00;;;;;;;15.73;100.00;100376.88;5030646;28;20024;-74
2023/07/27 06:49:01;;;;;;;3.10;2.60;;;;;;;15.76;100.00;100381.03;5030827;28;20029;-75
2023/07/27 06:51:27;;;;;;;2.70;2.50;;;;;;;15.79;100.00;100372.75;5030438;28;20026;-75
2023/07/27 06:53:52;;;;;;;3.28;2.90;;;;;;;15.81;100.00;100373.44;5029036;28;20379;-75
2023/07/27 06:56:18;;;;;;;3.55;3.05;;;;;;;15.83;100.00;100382.88;5020937;28;20026;-75
2023/07/27 06:58:43;;;;;;;3.15;2.85;;;;;;;15.85;100.00;100382.72;5007743;28;20030;-74
2023/07/27 07:01:11;;;;;;;3.33;2.80;;;;;;;15.86;100.00;100376.44;5023869;28;20048;-74
2023/07/27 07:03:36;;;;;;;3.25;2.80;;;;;;;15.88;100.00;100380.59;5024139;28;20046;-74
2023/07/27 07:06:02;;;;;;;3.33;2.80;;;;;;;15.89;100.00;100371.63;5028532;28;20140;-74
2023/07/27 07:08:29;;;;;;;3.10;2.85;;;;;;;15.92;100.00;100376.63;5028701;28;20029;-74
2023/07/27 07:10:54;;;;;;;3.63;2.95;;;;;;;15.92;100.00;100370.50;5011293;28;20021;-74
2023/07/27 07:13:21;;;;;;;3.83;3.28;;;;;;;15.96;100.00;100379.78;5030397;28;20068;-73
2023/07/27 07:15:47;;;;;;;3.22;2.92;;;;;;;15.98;100.00;100380.47;5029293;28;20428;-74
2023/07/27 07:18:14;;;;;;;3.50;3.20;;;;;;;16.00;100.00;100378.47;5027607;28;20032;-74
2023/07/27 07:20:39;;;;;;;8.55;3.47;;;;;;;16.00;100.00;100375.81;5015025;28;20030;-74
2023/07/27 07:23:04;;;;;;;3.45;3.15;;;;;;;16.04;100.00;100379.84;5024012;28;20032;-74
2023/07/27 07:25:30;;;;;;;3.65;3.30;;;;;;;16.07;100.00;100376.03;5028787;28;20021;-74
2023/07/27 07:27:55;;;;;;;3.42;3.13;;;;;;;16.12;100.00;100382.53;5005435;28;20053;-74
2023/07/27 07:30:20;;;;;;;3.33;3.03;;;;;;;16.18;100.00;100381.88;5008306;28;20037;-73
2023/07/27 07:32:46;;;;;;;3.85;3.05;;;;;;;16.23;100.00;100378.72;5015316;28;20060;-75
2023/07/27 07:35:11;;;;;;;2.45;2.25;;;;;;;16.30;100.00;100367.31;5027311;28;20021;-74
2023/07/27 07:37:37;;;;;;;2.92;2.63;;;;;;;16.38;100.00;100365.66;5024612;28;20030;-75
2023/07/27 07:40:02;;;;;;;2.40;2.20;;;;;;;16.42;100.00;100356.41;5006053;28;20031;-74
2023/07/27 07:42:28;;;;;;;2.92;2.13;;;;;;;16.45;100.00;100356.91;5030273;28;20033;-74
2023/07/27 07:44:53;;;;;;;2.83;2.10;;;;;;;16.54;100.00;100350.59;5008572;28;20129;-74
2023/07/27 07:47:19;;;;;;;2.15;1.92;;;;;;;16.60;100.00;100349.94;5010167;28;20113;-75
2023/07/27 07:49:47;;;;;;;1.80;1.70;;;;;;;16.61;100.00;100356.09;5027838;28;20385;-75
2023/07/27 07:52:13;;;;;;;1.88;1.73;;;;;;;16.60;100.00;100354.41;5029975;28;20029;-74
2023/07/27 07:54:38;;;;;;;3.08;1.95;;;;;;;16.63;100.00;100354.09;5029955;28;20055;-74
2023/07/27 07:57:09;;;;;;;1.92;1.73;;;;;;;16.61;100.00;100350.78;5030181;28;20063;-74
2023/07/27 07:59:35;;;;;;;1.70;1.60;;;;;;;16.65;100.00;100352.09;5030404;28;20040;-73
2023/07/27 08:02:00;;;;;;;1.50;1.40;;;;;;;16.70;100.00;100355.13;5029933;28;20477;-74
2023/07/27 08:04:26;;;;;;;1.85;1.60;;;;;;;16.72;100.00;100355.78;5029793;28;20501;-73
2023/07/27 08:06:51;;;;;;;3.53;1.80;;;;;;;16.74;100.00;100356.44;5012313;28;20032;-73
2023/07/27 08:09:17;;;;;;;1.83;1.73;;;;;;;16.78;100.00;100351.63;4990732;28;20022;-73
2023/07/27 08:11:42;;;;;;;1.80;1.70;;;;;;;16.80;100.00;100344.31;5020543;28;20036;-74
2023/07/27 08:14:11;;;;;;;1.92;1.83;;;;;;;16.80;100.00;100352.28;4991877;28;20029;-73
2023/07/27 08:16:37;;;;;;;2.42;1.80;;;;;;;16.83;100.00;100344.84;5025902;28;20105;-74
2023/07/27 08:19:03;;;;;;;1.85;1.70;;;;;;;16.81;100.00;100340.66;4999533;28;20120;-74
2023/07/27 08:21:28;;;;;;;2.20;1.80;;;;;;;16.88;100.00;100342.53;5024969;28;20763;-74
2023/07/27 08:23:56;;;;;;;1.95;1.85;;;;;;;16.94;100.00;100345.50;5029270;28;20837;-74
2023/07/27 08:26:21;;;;;;;2.08;1.70;;;;;;;17.00;100.00;100339.50;5017666;28;20026;-74
2023/07/27 08:28:47;;;;;;;2.38;2.17;;;;;;;17.03;100.00;100337.34;5019104;28;20037;-75
2023/07/27 08:31:13;;;;;;;2.08;1.85;;;;;;;17.07;100.00;100338.66;4987935;28;20612;-74
2023/07/27 08:33:46;;;;;;;3.75;2.15;;;;;;;17.09;100.00;100344.66;5020550;28;20026;-75
2023/07/27 08:36:12;;;;;;;2.28;2.15;;;;;;;17.17;100.00;100341.16;5026178;28;20024;-74
2023/07/27 08:38:37;;;;;;;2.45;1.90;;;;;;;17.14;100.00;100331.69;5012139;28;20025;-74
2023/07/27 08:41:05;;;;;;;2.30;2.10;;;;;;;17.18;100.00;100342.81;5020040;28;20029;-74
2023/07/27 08:43:31;;;;;;;1.88;1.70;;;;;;;17.19;100.00;100339.16;5014599;28;20030;-75
2023/07/27 08:45:56;;;;;;;1.90;1.80;;;;;;;17.22;100.00;100333.53;5018225;28;20022;-74
2023/07/27 08:48:25;;;;;;;2.13;1.80;;;;;;;17.29;100.00;100339.00;5025289;28;20435;-74
2023/07/27 08:50:52;;;;;;;2.17;1.80;;;;;;;17.33;100.00;100335.81;5022474;28;20022;-74
2023/07/27 08:53:18;;;;;;;2.55;1.90;;;;;;;17.32;100.00;100339.47;5028688;28;20017;-74
2023/07/27 08:55:43;;;;;;;2.20;2.00;;;;;;;17.33;100.00;100338.47;5029022;28;20100;-75
2023/07/27 08:58:10;;;;;;;1.80;1.70;;;;;;;17.27;100.00;100341.00;5020128;28;20116;-75
2023/07/27 09:00:38;;;;;;;1.80;1.50;;;;;;;17.26;100.00;100339.34;5001529;28;20508;-75
2023/07/27 09:03:04;;;;;;;3.17;1.67;;;;;;;17.30;100.00;100341.47;5017107;28;20106;-74
2023/07/27 09:05:44;;;;;;;3.13;1.50;;;;;;;17.29;100.00;100345.13;5021223;28;20037;-74
2023/07/27 09:08:13;;;;;;;3.38;1.60;;;;;;;17.28;100.00;100343.47;5026285;28;20112;-74
2023/07/27 09:10:44;;;;;;;2.17;1.50;;;;;;;17.26;100.00;100340.16;5041008;28;20032;-74
2023/07/27 09:13:10;;;;;;;2.13;1.45;;;;;;;17.30;100.00;100333.50;5048658;28;20447;-74
2023/07/27 09:15:42;;;;;;;2.50;1.55;;;;;;;17.40;100.00;100342.13;5048787;28;20092;-81
2023/07/27 09:18:09;;;;;;;1.92;1.50;;;;;;;17.45;100.00;100331.78;5048324;28;20554;-76
2023/07/27 09:20:37;;;;;;;3.60;1.80;;;;;;;17.53;100.00;100333.59;5036738;28;20391;-76
2023/07/27 09:23:03;;;;;;;2.28;1.50;;;;;;;17.58;100.00;100330.41;5037603;28;20124;-75
2023/07/27 09:25:28;;;;;;;2.13;1.50;;;;;;;17.57;100.00;100332.25;5041898;28;20036;-75
2023/07/27 09:27:55;;;;;;;7.10;2.20;;;;;;;17.58;100.00;100333.06;5025261;28;20048;-76
2023/07/27 09:30:23;;;;;;;1.73;1.40;;;;;;;17.53;100.00;100339.75;5041946;28;20103;-75
2023/07/27 09:32:49;;;;;;;2.75;1.38;;;;;;;17.58;100.00;100327.75;5047345;28;20029;-75
2023/07/27 09:35:16;;;;;;;3.17;1.40;;;;;;;17.70;100.00;100332.59;5047760;28;20021;-76
2023/07/27 09:37:49;;;;;;;1.90;1.42;;;;;;;17.73;100.00;100336.72;5048635;28;20029;-76
2023/07/27 09:40:19;;;;;;;2.22;1.60;;;;;;;17.73;100.00;100334.06;5029875;28;20496;-75
2023/07/27 09:42:45;;;;;;;1.40;1.30;;;;;;;17.69;100.00;100324.78;5036014;28;20120;-74
2023/07/27 09:45:11;;;;;;;3.08;1.50;;;;;;;17.67;100.00;100332.94;5041720;28;20032;-75
2023/07/27 09:47:38;;;;;;;1.58;1.23;;;;;;;17.67;100.00;100327.59;5034208;28;20028;-74
2023/07/27 09:50:03;;;;;;;2.47;1.20;;;;;;;17.66;100.00;100335.72;5052144;28;20033;-76
2023/07/27 09:52:30;;;;;;;2.78;1.30;;;;;;;17.66;100.00;100328.59;5052258;28;20541;-74
2023/07/27 09:54:57;;;;;;;1.30;1.20;;;;;;;17.66;100.00;100328.59;5046465;28;20481;-73
2023/07/27 09:57:23;;;;;;;2.95;1.33;;;;;;;17.73;100.00;100331.41;5042780;28;20676;-74
2023/07/27 09:59:49;;;;;;;1.88;1.40;;;;;;;17.74;100.00;100333.91;5033090;28;20020;-74
2023/07/27 10:02:14;;;;;;;1.42;1.23;;;;;;;17.81;100.00;100328.72;5039964;28;20481;-74
2023/07/27 10:04:46;;;;;;;2.20;1.35;;;;;;;17.87;100.00;100338.66;5015972;28;21491;-74
2023/07/27 10:07:12;;;;;;;1.45;1.30;;;;;;;17.88;100.00;100340.31;5020851;28;20589;-74
2023/07/27 10:09:38;;;;;;;3.17;1.45;;;;;;;17.89;100.00;100335.81;5015697;28;20117;-74
2023/07/27 10:12:04;;;;;;;1.60;1.50;;;;;;;17.93;100.00;100329.16;5022612;28;20021;-73
2023/07/27 10:14:30;;;;;;;3.00;1.52;;;;;;;17.92;100.00;100328.31;5018129;28;20067;-74
2023/07/27 10:17:07;;;;;;;2.17;1.30;;;;;;;17.94;100.00;100334.31;5030589;28;20540;-74
2023/07/27 10:19:42;;;;;;;1.10;1.00;;;;;;;17.91;100.00;100328.50;5030694;28;20528;-74
2023/07/27 10:22:10;;;;;;;1.83;1.23;;;;;;;17.86;100.00;100337.00;5012355;28;20116;-74
2023/07/27 10:24:47;;;;;;;1.08;0.90;;;;;;;17.83;100.00;100334.69;5006511;28;20029;-75
2023/07/27 10:27:12;;;;;;;0.90;0.90;;;;;;;17.86;100.00;100331.69;5027801;28;20038;-74
2023/07/27 10:29:38;;;;;;;1.38;1.00;;;;;;;17.85;100.00;100330.84;5010624;28;20022;-74
2023/07/27 10:32:07;;;;;;;2.45;1.40;;;;;;;17.87;100.00;100332.50;5011118;28;20030;-74
2023/07/27 10:34:34;;;;;;;1.83;1.20;;;;;;;17.88;100.00;100335.00;5001189;28;20034;-74
2023/07/27 10:37:02;;;;;;;1.17;1.10;;;;;;;17.92;100.00;100325.66;5007060;28;20355;-74
2023/07/27 10:39:34;;;;;;;1.15;1.08;;;;;;;17.99;100.00;100331.09;5014734;28;20447;-74
2023/07/27 10:42:10;;;;;;;;;;;;;;;18.07;100.00;100342.56;5020556;28;20024;-75
2023/07/27 10:44:45;;;;;;;1.00;0.90;;;;;;;18.07;100.00;100339.91;5031215;28;19962;-74
2023/07/27 10:47:15;;;;;;;1.52;1.20;;;;;;;18.02;100.00;100336.94;5018244;28;20026;-75
2023/07/27 10:49:46;;;;;;;1.27;1.10;;;;;;;18.03;100.00;100337.78;5030612;28;20021;-73
2023/07/27 10:52:20;;;;;;;1.20;1.10;;;;;;;18.12;100.00;100342.88;5009477;28;20028;-75
2023/07/27 10:54:47;;;;;;;1.77;1.30;;;;;;;18.08;100.00;100338.91;4991469;28;20061;-75
2023/07/27 10:57:14;;;;;;;1.30;1.20;;;;;;;18.07;100.00;100339.09;5021024;28;20025;-74
2023/07/27 10:59:43;;;;;;;1.67;1.20;;;;;;;18.06;100.00;100340.91;5030690;28;20025;-74
2023/07/27 11:02:18;;;;;;;1.50;1.38;;;;;;;18.08;100.00;100341.56;5019689;28;20033;-74
2023/07/27 11:04:44;;;;;;;1.23;1.13;;;;;;;18.08;100.00;100338.91;5043645;28;20519;-74
2023/07/27 11:07:10;;;;;;;1.20;1.10;;;;;;;18.07;100.00;100334.59;5026600;28;20017;-74
2023/07/27 11:09:37;;;;;;;1.20;1.10;;;;;;;18.01;100.00;100340.63;5022786;28;20071;-74
2023/07/27 11:12:03;;;;;;;0.80;0.80;;;;;;;17.97;100.00;100328.63;5023500;28;20116;-74
2023/07/27 11:14:29;;;;;;;0.95;0.80;;;;;;;18.07;100.00;100329.25;5012628;28;20122;-74
2023/07/27 11:16:55;;;;;;;0.88;0.88;;;;;;;18.13;100.00;100320.56;5028989;28;20046;-75
2023/07/27 11:19:25;;;;;;;0.90;0.90;;;;;;;18.17;100.00;100319.22;5028938;28;20032;-74